Weather at Burlington Municipal Airport

Public forecast

Using degrees Fahrenheit for public forecast. Weather courtesy of forecast.io.

Current aviation weather report (METAR) for Burlington Municipal Airport

Retrieved 2021/06/13 16:35 UTC (22 minutes ago):

KBUU 131635Z AUTO 33007KT 300V010 10SM 28/11 A3002 RMK AO2 T02780107 PWINO

Closest aviation forecast (TAF) to Burlington Municipal Airport

Closest forecast is Kenosha Regional Airport, 17.6 nm (32.6 km) ESE. Retrieved 2021/06/13 12:22 UTC (5 hours ago):

TAF KENW 131120Z 1312/1412 34005KT P6SM FEW250 FM132200 08007KT P6SM SKC FM140200 18003KT P6SM SKC FM140800 36007KT P6SM SCT250